Bolzano, Italy

5:16 AM CET on February 08, 2016 (GMT +0100)
Bolzano | | Change Station
CLOSE
Current Station
Airport
Location: Bolzano,
Elevation: 791 ft
Nearby Weather Stations

Elev 791 ft 46.46 °N, 11.33 °E | Updated 6 hours ago

Partly Cloudy
Partly Cloudy
38 °F
Feels Like 34 °F
N
4
Wind Variable Wind from West
Gusts mph

Today
High -- | Low -- °F
--% Chance of Precip.
Yesterday
High -- | Low -- °F
Precip. -- in
Pressure 30.01 in
Visibility 0.2 miles
Clouds Overcast 100 ft
Windchill 34 °F
Dew Point 37 °F
Humidity 96%
Rainfall 0.00 in
Snow Depth Not available.
7:29 AM 5:28 PM
Waning Crescent, 0% visible
METAR LIPB 072150Z VRB02KT 0400 -RA FG OVC001 04/04 Q1016
Pressure 30.01 in
Visibility 0.2 miles
Clouds Overcast 100 ft
Windchill 34 °F
Dew Point 37 °F
Humidity 96%
Rainfall 0.00 in
Snow Depth Not available.
7:29 AM 5:28 PM
Waning Crescent, 0% visible
METAR LIPB 072150Z VRB02KT 0400 -RA FG OVC001 04/04 Q1016

10-Day Weather Forecast

Almanac

Astronomy

Feb. 08, 2016 Rise Set
Actual Time
Civil Twilight
Nautical Twilight
Astronomical Twilight
Moon
Length of Visible Light
Length of Day
Tomorrow will be .
, % of the Moon is Illuminated

Today's Extremes

Country Highs Country Lows

Community

WunderPhotos

Upload Photos

1,891,379 photos uploaded!

WunderBlog® & News

Nearby

Air Quality

  Air Quality AQ Index Pollutant
Not available.

Snow Depth

Station Depth Elevation

Earthquake Activity

City Distance Mag. Time & Date
Minimum magnitude displayed is 2.5.

Coastal Water Temperatures

Place Temperature

Stations

Nearby Weather Stations

Station Location Temp. Windchill Dew Point Humidity Wind Precip. Elev Updated Type